sensor_id;sensor_type;location;lat;lon;timestamp;P1;durP1;ratioP1;P2;durP2;ratioP2
65230;SDS011;51813;40.666;16.602;2022-08-19T00:01:37;5.82;;;2.90;;
65230;SDS011;51813;40.666;16.602;2022-08-19T00:04:06;5.22;;;2.95;;
65230;SDS011;51813;40.666;16.602;2022-08-19T00:06:33;5.38;;;2.97;;
65230;SDS011;51813;40.666;16.602;2022-08-19T00:09:00;5.05;;;3.17;;
65230;SDS011;51813;40.666;16.602;2022-08-19T00:11:28;6.88;;;3.15;;
65230;SDS011;51813;40.666;16.602;2022-08-19T00:13:54;5.53;;;2.80;;
65230;SDS011;51813;40.666;16.602;2022-08-19T00:16:21;6.10;;;3.53;;
65230;SDS011;51813;40.666;16.602;2022-08-19T00:18:48;5.22;;;2.90;;
65230;SDS011;51813;40.666;16.602;2022-08-19T00:21:14;4.70;;;3.00;;
65230;SDS011;51813;40.666;16.602;2022-08-19T00:23:41;7.25;;;3.33;;
65230;SDS011;51813;40.666;16.602;2022-08-19T00:26:08;4.97;;;3.05;;
65230;SDS011;51813;40.666;16.602;2022-08-19T00:28:35;7.75;;;3.22;;
65230;SDS011;51813;40.666;16.602;2022-08-19T00:31:05;7.80;;;3.58;;
65230;SDS011;51813;40.666;16.602;2022-08-19T00:33:32;5.03;;;2.75;;
65230;SDS011;51813;40.666;16.602;2022-08-19T00:36:02;5.75;;;2.78;;
65230;SDS011;51813;40.666;16.602;2022-08-19T00:38:31;5.15;;;2.67;;
65230;SDS011;51813;40.666;16.602;2022-08-19T00:40:57;5.07;;;2.97;;
65230;SDS011;51813;40.666;16.602;2022-08-19T00:43:24;6.00;;;2.92;;
65230;SDS011;51813;40.666;16.602;2022-08-19T00:45:51;4.18;;;2.53;;
65230;SDS011;51813;40.666;16.602;2022-08-19T00:48:18;5.72;;;3.05;;
65230;SDS011;51813;40.666;16.602;2022-08-19T00:50:45;5.85;;;2.92;;
65230;SDS011;51813;40.666;16.602;2022-08-19T00:53:13;6.43;;;2.70;;
65230;SDS011;51813;40.666;16.602;2022-08-19T00:55:44;3.78;;;2.70;;
65230;SDS011;51813;40.666;16.602;2022-08-19T00:58:14;4.45;;;2.67;;
65230;SDS011;51813;40.666;16.602;2022-08-19T01:00:43;5.80;;;3.00;;
65230;SDS011;51813;40.666;16.602;2022-08-19T01:03:11;5.82;;;2.97;;
65230;SDS011;51813;40.666;16.602;2022-08-19T01:05:41;5.32;;;2.47;;
65230;SDS011;51813;40.666;16.602;2022-08-19T01:08:08;5.82;;;2.97;;
65230;SDS011;51813;40.666;16.602;2022-08-19T01:11:08;4.38;;;2.55;;
65230;SDS011;51813;40.666;16.602;2022-08-19T01:13:27;5.93;;;2.95;;
65230;SDS011;51813;40.666;16.602;2022-08-19T01:16:04;5.38;;;2.65;;
65230;SDS011;51813;40.666;16.602;2022-08-19T01:18:32;5.88;;;2.70;;
65230;SDS011;51813;40.666;16.602;2022-08-19T01:21:05;5.38;;;2.70;;
65230;SDS011;51813;40.666;16.602;2022-08-19T01:23:35;4.55;;;2.50;;
65230;SDS011;51813;40.666;16.602;2022-08-19T01:26:14;4.97;;;2.60;;
65230;SDS011;51813;40.666;16.602;2022-08-19T01:28:43;8.13;;;3.00;;
65230;SDS011;51813;40.666;16.602;2022-08-19T01:31:15;5.53;;;2.75;;
65230;SDS011;51813;40.666;16.602;2022-08-19T01:33:47;6.68;;;2.85;;
65230;SDS011;51813;40.666;16.602;2022-08-19T01:36:22;6.03;;;3.20;;
65230;SDS011;51813;40.666;16.602;2022-08-19T01:38:51;8.00;;;2.95;;
65230;SDS011;51813;40.666;16.602;2022-08-19T01:41:17;4.88;;;2.80;;
65230;SDS011;51813;40.666;16.602;2022-08-19T01:43:43;3.70;;;2.60;;
65230;SDS011;51813;40.666;16.602;2022-08-19T01:46:09;4.28;;;2.80;;
65230;SDS011;51813;40.666;16.602;2022-08-19T01:48:37;4.00;;;2.38;;
65230;SDS011;51813;40.666;16.602;2022-08-19T01:51:05;6.57;;;2.97;;
65230;SDS011;51813;40.666;16.602;2022-08-19T01:53:32;5.15;;;2.70;;
65230;SDS011;51813;40.666;16.602;2022-08-19T01:55:58;6.57;;;2.65;;
65230;SDS011;51813;40.666;16.602;2022-08-19T01:58:26;5.30;;;2.70;;
65230;SDS011;51813;40.666;16.602;2022-08-19T02:00:57;7.25;;;3.00;;
65230;SDS011;51813;40.666;16.602;2022-08-19T02:03:23;4.05;;;2.58;;
65230;SDS011;51813;40.666;16.602;2022-08-19T02:05:53;3.95;;;2.50;;
65230;SDS011;51813;40.666;16.602;2022-08-19T02:08:20;5.47;;;3.03;;
65230;SDS011;51813;40.666;16.602;2022-08-19T02:10:46;5.72;;;3.15;;
65230;SDS011;51813;40.666;16.602;2022-08-19T02:13:13;3.53;;;2.47;;
65230;SDS011;51813;40.666;16.602;2022-08-19T02:15:39;7.32;;;2.95;;
65230;SDS011;51813;40.666;16.602;2022-08-19T02:18:05;6.53;;;2.72;;
65230;SDS011;51813;40.666;16.602;2022-08-19T02:20:32;5.07;;;2.50;;
65230;SDS011;51813;40.666;16.602;2022-08-19T02:22:58;3.92;;;2.13;;
65230;SDS011;51813;40.666;16.602;2022-08-19T02:25:26;5.40;;;2.65;;
65230;SDS011;51813;40.666;16.602;2022-08-19T02:27:52;4.22;;;2.55;;
65230;SDS011;51813;40.666;16.602;2022-08-19T02:30:19;5.30;;;2.80;;
65230;SDS011;51813;40.666;16.602;2022-08-19T02:32:45;6.22;;;3.03;;
65230;SDS011;51813;40.666;16.602;2022-08-19T02:35:12;7.65;;;2.92;;
65230;SDS011;51813;40.666;16.602;2022-08-19T02:37:39;4.22;;;2.85;;
65230;SDS011;51813;40.666;16.602;2022-08-19T02:40:25;6.03;;;2.80;;
65230;SDS011;51813;40.666;16.602;2022-08-19T02:42:51;8.63;;;3.08;;
65230;SDS011;51813;40.666;16.602;2022-08-19T02:45:17;7.57;;;3.03;;
65230;SDS011;51813;40.666;16.602;2022-08-19T02:47:43;5.75;;;2.88;;
65230;SDS011;51813;40.666;16.602;2022-08-19T02:50:09;6.57;;;2.72;;
65230;SDS011;51813;40.666;16.602;2022-08-19T02:52:35;4.57;;;2.72;;
65230;SDS011;51813;40.666;16.602;2022-08-19T02:55:01;6.03;;;2.85;;
65230;SDS011;51813;40.666;16.602;2022-08-19T02:57:27;6.10;;;2.65;;
65230;SDS011;51813;40.666;16.602;2022-08-19T02:59:56;7.47;;;2.65;;
65230;SDS011;51813;40.666;16.602;2022-08-19T03:02:22;6.30;;;2.95;;
65230;SDS011;51813;40.666;16.602;2022-08-19T03:04:48;10.65;;;3.15;;
65230;SDS011;51813;40.666;16.602;2022-08-19T03:07:14;6.20;;;2.78;;
65230;SDS011;51813;40.666;16.602;2022-08-19T03:09:41;5.72;;;2.72;;
65230;SDS011;51813;40.666;16.602;2022-08-19T03:12:09;7.05;;;2.72;;
65230;SDS011;51813;40.666;16.602;2022-08-19T03:14:36;5.43;;;2.50;;
65230;SDS011;51813;40.666;16.602;2022-08-19T03:17:02;5.85;;;2.90;;
65230;SDS011;51813;40.666;16.602;2022-08-19T03:19:29;6.13;;;2.50;;
65230;SDS011;51813;40.666;16.602;2022-08-19T03:21:56;5.00;;;2.63;;
65230;SDS011;51813;40.666;16.602;2022-08-19T03:24:22;5.32;;;2.67;;
65230;SDS011;51813;40.666;16.602;2022-08-19T03:26:50;5.55;;;2.90;;
65230;SDS011;51813;40.666;16.602;2022-08-19T03:29:18;7.55;;;2.75;;
65230;SDS011;51813;40.666;16.602;2022-08-19T03:31:44;6.82;;;3.05;;
65230;SDS011;51813;40.666;16.602;2022-08-19T03:34:12;6.55;;;2.88;;
65230;SDS011;51813;40.666;16.602;2022-08-19T03:36:40;5.78;;;3.10;;
65230;SDS011;51813;40.666;16.602;2022-08-19T03:39:06;5.40;;;2.67;;
65230;SDS011;51813;40.666;16.602;2022-08-19T03:41:35;4.57;;;2.78;;
65230;SDS011;51813;40.666;16.602;2022-08-19T03:44:03;9.05;;;3.35;;
65230;SDS011;51813;40.666;16.602;2022-08-19T03:46:30;5.70;;;2.83;;
65230;SDS011;51813;40.666;16.602;2022-08-19T03:48:58;9.35;;;3.13;;
65230;SDS011;51813;40.666;16.602;2022-08-19T03:51:32;11.68;;;3.33;;
65230;SDS011;51813;40.666;16.602;2022-08-19T03:54:03;9.18;;;3.30;;
65230;SDS011;51813;40.666;16.602;2022-08-19T03:56:33;7.35;;;3.10;;
65230;SDS011;51813;40.666;16.602;2022-08-19T03:59:00;5.88;;;2.83;;
65230;SDS011;51813;40.666;16.602;2022-08-19T04:01:28;9.00;;;3.20;;
65230;SDS011;51813;40.666;16.602;2022-08-19T04:03:57;8.15;;;3.03;;
65230;SDS011;51813;40.666;16.602;2022-08-19T04:06:27;7.97;;;3.17;;
65230;SDS011;51813;40.666;16.602;2022-08-19T04:08:55;9.63;;;3.88;;
65230;SDS011;51813;40.666;16.602;2022-08-19T04:11:30;6.03;;;2.92;;
65230;SDS011;51813;40.666;16.602;2022-08-19T04:13:59;9.02;;;3.42;;
65230;SDS011;51813;40.666;16.602;2022-08-19T04:16:26;7.72;;;3.35;;
65230;SDS011;51813;40.666;16.602;2022-08-19T04:18:56;6.30;;;3.33;;
65230;SDS011;51813;40.666;16.602;2022-08-19T04:21:25;6.75;;;3.03;;
65230;SDS011;51813;40.666;16.602;2022-08-19T04:23:52;8.88;;;3.58;;
65230;SDS011;51813;40.666;16.602;2022-08-19T04:26:22;8.70;;;3.53;;
65230;SDS011;51813;40.666;16.602;2022-08-19T04:28:49;10.65;;;3.58;;
65230;SDS011;51813;40.666;16.602;2022-08-19T04:31:17;9.02;;;3.17;;
65230;SDS011;51813;40.666;16.602;2022-08-19T04:33:45;7.35;;;3.70;;
65230;SDS011;51813;40.666;16.602;2022-08-19T04:36:17;9.60;;;3.45;;
65230;SDS011;51813;40.666;16.602;2022-08-19T04:38:47;6.35;;;3.35;;
65230;SDS011;51813;40.666;16.602;2022-08-19T04:41:13;5.78;;;3.10;;
65230;SDS011;51813;40.666;16.602;2022-08-19T04:43:58;6.18;;;3.20;;
65230;SDS011;51813;40.666;16.602;2022-08-19T04:46:24;8.32;;;3.42;;
65230;SDS011;51813;40.666;16.602;2022-08-19T04:48:50;6.60;;;3.35;;
65230;SDS011;51813;40.666;16.602;2022-08-19T04:51:17;8.52;;;3.63;;
65230;SDS011;51813;40.666;16.602;2022-08-19T04:53:43;7.65;;;3.83;;
65230;SDS011;51813;40.666;16.602;2022-08-19T04:56:10;9.18;;;4.00;;
65230;SDS011;51813;40.666;16.602;2022-08-19T04:58:43;8.27;;;4.18;;
65230;SDS011;51813;40.666;16.602;2022-08-19T05:01:11;8.60;;;4.20;;
65230;SDS011;51813;40.666;16.602;2022-08-19T05:03:43;7.30;;;3.60;;
65230;SDS011;51813;40.666;16.602;2022-08-19T05:06:10;7.63;;;3.45;;
65230;SDS011;51813;40.666;16.602;2022-08-19T05:08:38;8.75;;;3.60;;
65230;SDS011;51813;40.666;16.602;2022-08-19T05:11:29;7.13;;;3.72;;
65230;SDS011;51813;40.666;16.602;2022-08-19T05:13:54;6.95;;;3.92;;
65230;SDS011;51813;40.666;16.602;2022-08-19T05:16:21;7.55;;;3.60;;
65230;SDS011;51813;40.666;16.602;2022-08-19T05:18:48;7.07;;;3.92;;
65230;SDS011;51813;40.666;16.602;2022-08-19T05:21:32;9.25;;;4.03;;
65230;SDS011;51813;40.666;16.602;2022-08-19T05:24:17;10.20;;;4.10;;
65230;SDS011;51813;40.666;16.602;2022-08-19T05:26:44;7.55;;;3.80;;
65230;SDS011;51813;40.666;16.602;2022-08-19T05:29:13;6.65;;;3.63;;
65230;SDS011;51813;40.666;16.602;2022-08-19T05:31:40;8.60;;;3.95;;
65230;SDS011;51813;40.666;16.602;2022-08-19T05:34:06;8.45;;;3.90;;
65230;SDS011;51813;40.666;16.602;2022-08-19T05:36:36;6.30;;;3.72;;
65230;SDS011;51813;40.666;16.602;2022-08-19T05:39:07;9.52;;;4.10;;
65230;SDS011;51813;40.666;16.602;2022-08-19T05:41:35;7.60;;;4.05;;
65230;SDS011;51813;40.666;16.602;2022-08-19T05:46:34;6.05;;;3.92;;
65230;SDS011;51813;40.666;16.602;2022-08-19T05:49:00;6.65;;;3.40;;
65230;SDS011;51813;40.666;16.602;2022-08-19T05:51:26;6.30;;;3.50;;
65230;SDS011;51813;40.666;16.602;2022-08-19T05:53:51;7.57;;;3.70;;
65230;SDS011;51813;40.666;16.602;2022-08-19T05:56:17;6.78;;;3.50;;
65230;SDS011;51813;40.666;16.602;2022-08-19T05:58:45;8.38;;;3.80;;
65230;SDS011;51813;40.666;16.602;2022-08-19T06:01:15;10.63;;;4.10;;
65230;SDS011;51813;40.666;16.602;2022-08-19T06:03:42;9.82;;;4.03;;
65230;SDS011;51813;40.666;16.602;2022-08-19T06:06:09;8.70;;;3.50;;
65230;SDS011;51813;40.666;16.602;2022-08-19T06:08:37;7.88;;;3.55;;
65230;SDS011;51813;40.666;16.602;2022-08-19T06:14:01;11.63;;;3.42;;
65230;SDS011;51813;40.666;16.602;2022-08-19T06:16:29;9.32;;;4.07;;
65230;SDS011;51813;40.666;16.602;2022-08-19T06:18:57;10.13;;;4.15;;
65230;SDS011;51813;40.666;16.602;2022-08-19T06:21:26;7.47;;;3.85;;
65230;SDS011;51813;40.666;16.602;2022-08-19T06:23:53;6.88;;;3.50;;
65230;SDS011;51813;40.666;16.602;2022-08-19T06:26:20;6.80;;;3.95;;
65230;SDS011;51813;40.666;16.602;2022-08-19T06:28:47;7.45;;;4.22;;
65230;SDS011;51813;40.666;16.602;2022-08-19T06:31:14;10.82;;;4.45;;
65230;SDS011;51813;40.666;16.602;2022-08-19T06:33:53;6.00;;;3.42;;
65230;SDS011;51813;40.666;16.602;2022-08-19T06:36:23;7.30;;;3.70;;
65230;SDS011;51813;40.666;16.602;2022-08-19T06:38:56;8.13;;;3.75;;
65230;SDS011;51813;40.666;16.602;2022-08-19T06:41:23;9.27;;;3.97;;
65230;SDS011;51813;40.666;16.602;2022-08-19T06:43:49;8.48;;;4.13;;
65230;SDS011;51813;40.666;16.602;2022-08-19T06:46:16;9.30;;;4.32;;
65230;SDS011;51813;40.666;16.602;2022-08-19T06:48:43;6.05;;;4.00;;
65230;SDS011;51813;40.666;16.602;2022-08-19T06:51:09;6.25;;;3.95;;
65230;SDS011;51813;40.666;16.602;2022-08-19T06:53:35;8.88;;;4.00;;
65230;SDS011;51813;40.666;16.602;2022-08-19T06:56:01;7.40;;;3.38;;
65230;SDS011;51813;40.666;16.602;2022-08-19T06:58:28;6.82;;;3.38;;
65230;SDS011;51813;40.666;16.602;2022-08-19T07:00:58;7.30;;;3.30;;
65230;SDS011;51813;40.666;16.602;2022-08-19T07:03:27;7.60;;;3.55;;
65230;SDS011;51813;40.666;16.602;2022-08-19T07:05:57;9.75;;;4.25;;
65230;SDS011;51813;40.666;16.602;2022-08-19T07:08:35;7.32;;;3.92;;
65230;SDS011;51813;40.666;16.602;2022-08-19T07:11:05;7.80;;;3.90;;
65230;SDS011;51813;40.666;16.602;2022-08-19T07:13:33;8.85;;;4.65;;
65230;SDS011;51813;40.666;16.602;2022-08-19T07:16:08;11.30;;;4.00;;
65230;SDS011;51813;40.666;16.602;2022-08-19T07:18:36;8.90;;;4.50;;
65230;SDS011;51813;40.666;16.602;2022-08-19T07:21:06;9.57;;;4.10;;
65230;SDS011;51813;40.666;16.602;2022-08-19T07:23:36;10.57;;;4.40;;
65230;SDS011;51813;40.666;16.602;2022-08-19T07:26:09;11.43;;;4.20;;
65230;SDS011;51813;40.666;16.602;2022-08-19T07:28:37;10.57;;;4.35;;
65230;SDS011;51813;40.666;16.602;2022-08-19T07:31:07;9.93;;;4.70;;
65230;SDS011;51813;40.666;16.602;2022-08-19T07:33:33;12.77;;;4.40;;
65230;SDS011;51813;40.666;16.602;2022-08-19T07:36:01;8.93;;;4.43;;
65230;SDS011;51813;40.666;16.602;2022-08-19T07:38:28;9.35;;;4.57;;
65230;SDS011;51813;40.666;16.602;2022-08-19T07:40:54;13.43;;;4.00;;
65230;SDS011;51813;40.666;16.602;2022-08-19T07:43:19;8.18;;;4.07;;
65230;SDS011;51813;40.666;16.602;2022-08-19T07:45:50;10.95;;;4.18;;
65230;SDS011;51813;40.666;16.602;2022-08-19T07:48:25;14.15;;;5.00;;
65230;SDS011;51813;40.666;16.602;2022-08-19T07:50:53;12.45;;;4.90;;
65230;SDS011;51813;40.666;16.602;2022-08-19T07:53:27;10.77;;;4.75;;
65230;SDS011;51813;40.666;16.602;2022-08-19T07:55:54;11.73;;;4.80;;
65230;SDS011;51813;40.666;16.602;2022-08-19T07:58:21;10.00;;;4.60;;
65230;SDS011;51813;40.666;16.602;2022-08-19T08:00:48;10.90;;;4.30;;
65230;SDS011;51813;40.666;16.602;2022-08-19T08:03:16;12.10;;;4.82;;
65230;SDS011;51813;40.666;16.602;2022-08-19T08:05:43;11.65;;;4.55;;
65230;SDS011;51813;40.666;16.602;2022-08-19T08:08:28;10.68;;;4.40;;
65230;SDS011;51813;40.666;16.602;2022-08-19T08:11:10;10.57;;;4.15;;
65230;SDS011;51813;40.666;16.602;2022-08-19T08:13:36;13.77;;;4.60;;
65230;SDS011;51813;40.666;16.602;2022-08-19T08:16:02;8.85;;;4.28;;
65230;SDS011;51813;40.666;16.602;2022-08-19T08:18:28;13.07;;;5.20;;
65230;SDS011;51813;40.666;16.602;2022-08-19T08:20:54;9.15;;;5.03;;
65230;SDS011;51813;40.666;16.602;2022-08-19T08:23:21;14.23;;;5.03;;
65230;SDS011;51813;40.666;16.602;2022-08-19T08:25:48;10.82;;;4.97;;
65230;SDS011;51813;40.666;16.602;2022-08-19T08:28:15;10.10;;;4.38;;
65230;SDS011;51813;40.666;16.602;2022-08-19T08:30:41;11.35;;;5.22;;
65230;SDS011;51813;40.666;16.602;2022-08-19T08:33:08;10.32;;;4.60;;
65230;SDS011;51813;40.666;16.602;2022-08-19T08:35:34;11.48;;;5.50;;
65230;SDS011;51813;40.666;16.602;2022-08-19T08:38:01;12.13;;;5.63;;
65230;SDS011;51813;40.666;16.602;2022-08-19T08:45:56;12.00;;;4.95;;
65230;SDS011;51813;40.666;16.602;2022-08-19T08:48:32;10.23;;;4.53;;
65230;SDS011;51813;40.666;16.602;2022-08-19T08:51:05;12.80;;;5.05;;
65230;SDS011;51813;40.666;16.602;2022-08-19T08:53:35;11.55;;;4.72;;
65230;SDS011;51813;40.666;16.602;2022-08-19T08:56:04;11.18;;;4.80;;
65230;SDS011;51813;40.666;16.602;2022-08-19T08:58:36;10.05;;;4.55;;
65230;SDS011;51813;40.666;16.602;2022-08-19T09:01:23;8.55;;;4.65;;
65230;SDS011;51813;40.666;16.602;2022-08-19T09:03:49;12.05;;;4.75;;
65230;SDS011;51813;40.666;16.602;2022-08-19T09:06:22;9.52;;;4.25;;
65230;SDS011;51813;40.666;16.602;2022-08-19T09:17:11;6.88;;;4.13;;
65230;SDS011;51813;40.666;16.602;2022-08-19T09:19:51;6.35;;;3.72;;
65230;SDS011;51813;40.666;16.602;2022-08-19T09:22:22;10.13;;;4.20;;
65230;SDS011;51813;40.666;16.602;2022-08-19T09:24:49;10.18;;;5.57;;
65230;SDS011;51813;40.666;16.602;2022-08-19T09:27:17;13.07;;;5.78;;
65230;SDS011;51813;40.666;16.602;2022-08-19T09:29:45;10.88;;;5.20;;
65230;SDS011;51813;40.666;16.602;2022-08-19T09:32:14;11.40;;;6.00;;
65230;SDS011;51813;40.666;16.602;2022-08-19T09:34:40;13.40;;;6.45;;
65230;SDS011;51813;40.666;16.602;2022-08-19T09:37:06;13.93;;;5.78;;
65230;SDS011;51813;40.666;16.602;2022-08-19T09:39:32;14.00;;;6.15;;
65230;SDS011;51813;40.666;16.602;2022-08-19T09:41:57;12.10;;;6.65;;
65230;SDS011;51813;40.666;16.602;2022-08-19T09:44:23;12.25;;;7.35;;
65230;SDS011;51813;40.666;16.602;2022-08-19T09:46:49;14.50;;;7.95;;
65230;SDS011;51813;40.666;16.602;2022-08-19T09:49:16;15.43;;;7.75;;
65230;SDS011;51813;40.666;16.602;2022-08-19T09:51:43;13.05;;;7.72;;
65230;SDS011;51813;40.666;16.602;2022-08-19T09:54:09;16.15;;;7.50;;
65230;SDS011;51813;40.666;16.602;2022-08-19T09:56:34;13.30;;;6.82;;
65230;SDS011;51813;40.666;16.602;2022-08-19T09:59:01;13.10;;;6.65;;
65230;SDS011;51813;40.666;16.602;2022-08-19T10:01:29;13.02;;;6.85;;
65230;SDS011;51813;40.666;16.602;2022-08-19T10:03:56;16.38;;;7.55;;
65230;SDS011;51813;40.666;16.602;2022-08-19T10:06:24;9.05;;;6.28;;
65230;SDS011;51813;40.666;16.602;2022-08-19T10:08:54;15.07;;;7.43;;
65230;SDS011;51813;40.666;16.602;2022-08-19T10:11:21;12.85;;;6.82;;
65230;SDS011;51813;40.666;16.602;2022-08-19T10:13:47;18.13;;;7.75;;
65230;SDS011;51813;40.666;16.602;2022-08-19T10:16:18;11.93;;;6.18;;
65230;SDS011;51813;40.666;16.602;2022-08-19T10:18:47;13.73;;;6.10;;
65230;SDS011;51813;40.666;16.602;2022-08-19T10:21:13;12.55;;;6.03;;
65230;SDS011;51813;40.666;16.602;2022-08-19T10:23:42;17.00;;;6.10;;
65230;SDS011;51813;40.666;16.602;2022-08-19T10:26:11;15.07;;;6.78;;
65230;SDS011;51813;40.666;16.602;2022-08-19T10:28:45;13.13;;;6.53;;
65230;SDS011;51813;40.666;16.602;2022-08-19T10:31:12;15.82;;;6.75;;
65230;SDS011;51813;40.666;16.602;2022-08-19T10:33:40;13.95;;;6.45;;
65230;SDS011;51813;40.666;16.602;2022-08-19T10:36:10;14.07;;;6.68;;
65230;SDS011;51813;40.666;16.602;2022-08-19T10:38:40;13.23;;;7.03;;
65230;SDS011;51813;40.666;16.602;2022-08-19T10:41:13;13.48;;;6.85;;
65230;SDS011;51813;40.666;16.602;2022-08-19T10:43:41;12.38;;;6.85;;
65230;SDS011;51813;40.666;16.602;2022-08-19T10:46:08;12.85;;;7.82;;
65230;SDS011;51813;40.666;16.602;2022-08-19T10:48:35;14.82;;;7.47;;
65230;SDS011;51813;40.666;16.602;2022-08-19T10:51:02;13.68;;;6.80;;
65230;SDS011;51813;40.666;16.602;2022-08-19T10:53:47;12.23;;;7.07;;
65230;SDS011;51813;40.666;16.602;2022-08-19T10:56:13;10.10;;;6.13;;
65230;SDS011;51813;40.666;16.602;2022-08-19T10:58:57;13.18;;;6.90;;
65230;SDS011;51813;40.666;16.602;2022-08-19T11:01:24;11.95;;;6.57;;
65230;SDS011;51813;40.666;16.602;2022-08-19T11:03:51;10.63;;;6.38;;
65230;SDS011;51813;40.666;16.602;2022-08-19T11:06:17;11.30;;;6.10;;
65230;SDS011;51813;40.666;16.602;2022-08-19T11:08:44;9.02;;;6.10;;
65230;SDS011;51813;40.666;16.602;2022-08-19T11:11:10;9.50;;;5.57;;
65230;SDS011;51813;40.666;16.602;2022-08-19T11:13:38;10.85;;;6.45;;
65230;SDS011;51813;40.666;16.602;2022-08-19T11:16:07;8.43;;;5.18;;
65230;SDS011;51813;40.666;16.602;2022-08-19T11:18:40;12.10;;;5.15;;
65230;SDS011;51813;40.666;16.602;2022-08-19T11:21:25;8.20;;;5.53;;
65230;SDS011;51813;40.666;16.602;2022-08-19T11:23:58;7.80;;;5.00;;
65230;SDS011;51813;40.666;16.602;2022-08-19T11:26:28;6.65;;;5.03;;
65230;SDS011;51813;40.666;16.602;2022-08-19T11:28:55;7.85;;;5.28;;
65230;SDS011;51813;40.666;16.602;2022-08-19T11:31:23;7.97;;;5.15;;
65230;SDS011;51813;40.666;16.602;2022-08-19T11:33:52;7.80;;;4.90;;
65230;SDS011;51813;40.666;16.602;2022-08-19T11:36:19;8.63;;;4.70;;
65230;SDS011;51813;40.666;16.602;2022-08-19T11:38:46;7.00;;;5.15;;
65230;SDS011;51813;40.666;16.602;2022-08-19T11:41:17;8.02;;;5.25;;
65230;SDS011;51813;40.666;16.602;2022-08-19T11:43:43;6.85;;;5.00;;
65230;SDS011;51813;40.666;16.602;2022-08-19T11:46:11;6.85;;;5.28;;
65230;SDS011;51813;40.666;16.602;2022-08-19T11:48:38;8.63;;;4.70;;
65230;SDS011;51813;40.666;16.602;2022-08-19T11:51:05;6.95;;;4.70;;
65230;SDS011;51813;40.666;16.602;2022-08-19T11:53:35;7.90;;;5.13;;
65230;SDS011;51813;40.666;16.602;2022-08-19T11:56:02;8.02;;;5.35;;
65230;SDS011;51813;40.666;16.602;2022-08-19T11:58:30;7.93;;;5.07;;
65230;SDS011;51813;40.666;16.602;2022-08-19T12:00:55;8.77;;;5.15;;
65230;SDS011;51813;40.666;16.602;2022-08-19T12:03:21;6.75;;;4.88;;
65230;SDS011;51813;40.666;16.602;2022-08-19T12:05:48;6.95;;;4.85;;
65230;SDS011;51813;40.666;16.602;2022-08-19T12:08:15;9.20;;;4.95;;
65230;SDS011;51813;40.666;16.602;2022-08-19T12:10:41;6.28;;;4.80;;
65230;SDS011;51813;40.666;16.602;2022-08-19T12:13:08;9.63;;;5.15;;
65230;SDS011;51813;40.666;16.602;2022-08-19T12:15:38;8.35;;;4.80;;
65230;SDS011;51813;40.666;16.602;2022-08-19T12:18:08;6.65;;;5.05;;
65230;SDS011;51813;40.666;16.602;2022-08-19T12:20:35;7.95;;;4.88;;
65230;SDS011;51813;40.666;16.602;2022-08-19T12:23:01;7.28;;;4.65;;
65230;SDS011;51813;40.666;16.602;2022-08-19T12:25:27;7.20;;;4.78;;
65230;SDS011;51813;40.666;16.602;2022-08-19T12:27:53;14.85;;;5.90;;
65230;SDS011;51813;40.666;16.602;2022-08-19T12:30:19;12.05;;;5.68;;
65230;SDS011;51813;40.666;16.602;2022-08-19T12:32:45;12.55;;;6.18;;
65230;SDS011;51813;40.666;16.602;2022-08-19T12:35:11;12.90;;;6.28;;
65230;SDS011;51813;40.666;16.602;2022-08-19T12:37:37;9.88;;;5.80;;
65230;SDS011;51813;40.666;16.602;2022-08-19T12:40:04;12.43;;;7.15;;
65230;SDS011;51813;40.666;16.602;2022-08-19T12:42:30;14.77;;;7.40;;
65230;SDS011;51813;40.666;16.602;2022-08-19T12:44:56;14.55;;;6.97;;
65230;SDS011;51813;40.666;16.602;2022-08-19T12:47:22;11.02;;;6.15;;
65230;SDS011;51813;40.666;16.602;2022-08-19T12:49:48;12.95;;;6.40;;
65230;SDS011;51813;40.666;16.602;2022-08-19T12:52:14;13.95;;;6.35;;
65230;SDS011;51813;40.666;16.602;2022-08-19T12:54:40;13.48;;;6.47;;
65230;SDS011;51813;40.666;16.602;2022-08-19T12:57:08;10.57;;;6.63;;
65230;SDS011;51813;40.666;16.602;2022-08-19T12:59:35;11.40;;;6.47;;
65230;SDS011;51813;40.666;16.602;2022-08-19T13:02:05;9.82;;;5.88;;
65230;SDS011;51813;40.666;16.602;2022-08-19T13:04:33;11.35;;;6.05;;
65230;SDS011;51813;40.666;16.602;2022-08-19T13:07:05;10.32;;;6.65;;
65230;SDS011;51813;40.666;16.602;2022-08-19T13:09:32;14.55;;;7.20;;
65230;SDS011;51813;40.666;16.602;2022-08-19T13:11:58;16.55;;;7.03;;
65230;SDS011;51813;40.666;16.602;2022-08-19T13:14:25;14.52;;;6.78;;
65230;SDS011;51813;40.666;16.602;2022-08-19T13:16:51;11.63;;;6.93;;
65230;SDS011;51813;40.666;16.602;2022-08-19T13:19:17;13.88;;;6.72;;
65230;SDS011;51813;40.666;16.602;2022-08-19T13:21:45;13.68;;;7.13;;
65230;SDS011;51813;40.666;16.602;2022-08-19T13:24:14;19.00;;;7.07;;
65230;SDS011;51813;40.666;16.602;2022-08-19T13:26:40;16.80;;;6.82;;
65230;SDS011;51813;40.666;16.602;2022-08-19T13:29:06;14.48;;;7.20;;
65230;SDS011;51813;40.666;16.602;2022-08-19T13:31:50;15.38;;;6.80;;
65230;SDS011;51813;40.666;16.602;2022-08-19T13:34:34;17.50;;;6.43;;
65230;SDS011;51813;40.666;16.602;2022-08-19T13:37:00;18.35;;;6.88;;
65230;SDS011;51813;40.666;16.602;2022-08-19T13:39:31;15.73;;;6.47;;
65230;SDS011;51813;40.666;16.602;2022-08-19T13:41:57;17.77;;;7.43;;
65230;SDS011;51813;40.666;16.602;2022-08-19T13:44:25;14.70;;;6.43;;
65230;SDS011;51813;40.666;16.602;2022-08-19T13:46:54;12.63;;;6.53;;
65230;SDS011;51813;40.666;16.602;2022-08-19T13:49:27;17.48;;;6.68;;
65230;SDS011;51813;40.666;16.602;2022-08-19T13:51:56;13.98;;;6.68;;
65230;SDS011;51813;40.666;16.602;2022-08-19T13:54:22;14.18;;;6.38;;
65230;SDS011;51813;40.666;16.602;2022-08-19T13:56:47;15.05;;;6.28;;
65230;SDS011;51813;40.666;16.602;2022-08-19T13:59:13;18.75;;;6.65;;
65230;SDS011;51813;40.666;16.602;2022-08-19T14:01:39;16.40;;;6.30;;
65230;SDS011;51813;40.666;16.602;2022-08-19T14:04:06;14.02;;;6.10;;
65230;SDS011;51813;40.666;16.602;2022-08-19T14:06:33;8.68;;;5.30;;
65230;SDS011;51813;40.666;16.602;2022-08-19T14:08:58;16.83;;;6.03;;
65230;SDS011;51813;40.666;16.602;2022-08-19T14:11:24;15.05;;;5.95;;
65230;SDS011;51813;40.666;16.602;2022-08-19T14:13:51;13.23;;;6.10;;
65230;SDS011;51813;40.666;16.602;2022-08-19T14:16:16;10.73;;;5.75;;
65230;SDS011;51813;40.666;16.602;2022-08-19T14:18:43;17.15;;;6.15;;
65230;SDS011;51813;40.666;16.602;2022-08-19T14:21:14;14.55;;;5.95;;
65230;SDS011;51813;40.666;16.602;2022-08-19T14:23:42;10.73;;;5.47;;
65230;SDS011;51813;40.666;16.602;2022-08-19T14:26:10;16.35;;;6.07;;
65230;SDS011;51813;40.666;16.602;2022-08-19T14:28:39;15.18;;;5.85;;
65230;SDS011;51813;40.666;16.602;2022-08-19T14:31:06;15.40;;;5.70;;
65230;SDS011;51813;40.666;16.602;2022-08-19T14:33:36;18.48;;;6.57;;
65230;SDS011;51813;40.666;16.602;2022-08-19T14:36:02;15.75;;;6.55;;
65230;SDS011;51813;40.666;16.602;2022-08-19T14:38:29;15.30;;;6.22;;
65230;SDS011;51813;40.666;16.602;2022-08-19T14:41:04;12.30;;;5.95;;
65230;SDS011;51813;40.666;16.602;2022-08-19T14:43:34;14.23;;;6.25;;
65230;SDS011;51813;40.666;16.602;2022-08-19T14:46:00;15.93;;;6.90;;
65230;SDS011;51813;40.666;16.602;2022-08-19T14:48:26;17.38;;;6.35;;
65230;SDS011;51813;40.666;16.602;2022-08-19T14:50:52;15.40;;;6.45;;
65230;SDS011;51813;40.666;16.602;2022-08-19T14:53:18;15.32;;;6.43;;
65230;SDS011;51813;40.666;16.602;2022-08-19T14:55:44;15.70;;;6.03;;